sensor_id;sensor_type;location;lat;lon;timestamp;temperature;humidity
15296;DHT22;7749;49.964;7.890;2024-01-30T00:02:00;2.40;99.90
15296;DHT22;7749;49.964;7.890;2024-01-30T00:04:27;2.30;99.90
15296;DHT22;7749;49.964;7.890;2024-01-30T00:06:55;2.30;99.90
15296;DHT22;7749;49.964;7.890;2024-01-30T00:09:22;2.30;99.90
15296;DHT22;7749;49.964;7.890;2024-01-30T00:11:50;2.30;99.90
15296;DHT22;7749;49.964;7.890;2024-01-30T00:14:18;2.30;99.90
15296;DHT22;7749;49.964;7.890;2024-01-30T00:16:46;2.20;99.90
15296;DHT22;7749;49.964;7.890;2024-01-30T00:19:13;2.20;99.90
15296;DHT22;7749;49.964;7.890;2024-01-30T00:21:40;2.20;99.90
15296;DHT22;7749;49.964;7.890;2024-01-30T00:24:08;2.20;99.90
15296;DHT22;7749;49.964;7.890;2024-01-30T00:26:36;2.10;99.90
15296;DHT22;7749;49.964;7.890;2024-01-30T00:29:03;2.10;99.90
15296;DHT22;7749;49.964;7.890;2024-01-30T00:31:31;2.00;99.90
15296;DHT22;7749;49.964;7.890;2024-01-30T00:33:58;2.00;99.90
15296;DHT22;7749;49.964;7.890;2024-01-30T00:36:26;1.90;99.90
15296;DHT22;7749;49.964;7.890;2024-01-30T00:38:53;1.90;99.90
15296;DHT22;7749;49.964;7.890;2024-01-30T00:41:21;1.90;99.90
15296;DHT22;7749;49.964;7.890;2024-01-30T00:43:48;1.90;99.90
15296;DHT22;7749;49.964;7.890;2024-01-30T00:46:15;1.90;99.90
15296;DHT22;7749;49.964;7.890;2024-01-30T00:48:43;1.90;99.90
15296;DHT22;7749;49.964;7.890;2024-01-30T00:51:10;1.90;99.90
15296;DHT22;7749;49.964;7.890;2024-01-30T00:53:38;1.90;99.90
15296;DHT22;7749;49.964;7.890;2024-01-30T00:56:05;1.90;99.90
15296;DHT22;7749;49.964;7.890;2024-01-30T00:58:33;1.90;99.90
15296;DHT22;7749;49.964;7.890;2024-01-30T01:01:01;1.90;99.90
15296;DHT22;7749;49.964;7.890;2024-01-30T01:03:29;1.80;99.90
15296;DHT22;7749;49.964;7.890;2024-01-30T01:05:57;1.80;99.90
15296;DHT22;7749;49.964;7.890;2024-01-30T01:08:24;1.80;99.90
15296;DHT22;7749;49.964;7.890;2024-01-30T01:10:52;1.80;99.90
15296;DHT22;7749;49.964;7.890;2024-01-30T01:13:19;1.80;99.90
15296;DHT22;7749;49.964;7.890;2024-01-30T01:15:47;1.90;99.90
15296;DHT22;7749;49.964;7.890;2024-01-30T01:18:14;1.90;99.90
15296;DHT22;7749;49.964;7.890;2024-01-30T01:20:42;1.80;99.90
15296;DHT22;7749;49.964;7.890;2024-01-30T01:23:09;1.80;99.90
15296;DHT22;7749;49.964;7.890;2024-01-30T01:25:36;1.80;99.90
15296;DHT22;7749;49.964;7.890;2024-01-30T01:28:04;1.80;99.90
15296;DHT22;7749;49.964;7.890;2024-01-30T01:30:31;1.80;99.90
15296;DHT22;7749;49.964;7.890;2024-01-30T01:32:59;1.80;99.90
15296;DHT22;7749;49.964;7.890;2024-01-30T01:35:29;1.80;99.90
15296;DHT22;7749;49.964;7.890;2024-01-30T01:37:56;1.70;99.90
15296;DHT22;7749;49.964;7.890;2024-01-30T01:40:27;1.70;99.90
15296;DHT22;7749;49.964;7.890;2024-01-30T01:42:55;1.70;99.90
15296;DHT22;7749;49.964;7.890;2024-01-30T01:45:23;1.80;99.90
15296;DHT22;7749;49.964;7.890;2024-01-30T01:47:51;1.70;99.90
15296;DHT22;7749;49.964;7.890;2024-01-30T01:50:20;1.70;99.90
15296;DHT22;7749;49.964;7.890;2024-01-30T01:52:49;1.70;99.90
15296;DHT22;7749;49.964;7.890;2024-01-30T01:55:19;1.60;99.90
15296;DHT22;7749;49.964;7.890;2024-01-30T01:57:49;1.60;99.90
15296;DHT22;7749;49.964;7.890;2024-01-30T02:00:18;1.60;99.90
15296;DHT22;7749;49.964;7.890;2024-01-30T02:02:46;1.60;99.90
15296;DHT22;7749;49.964;7.890;2024-01-30T02:05:15;1.50;99.90
15296;DHT22;7749;49.964;7.890;2024-01-30T02:07:43;1.50;99.90
15296;DHT22;7749;49.964;7.890;2024-01-30T02:10:11;1.50;99.90
15296;DHT22;7749;49.964;7.890;2024-01-30T02:12:40;1.50;99.90
15296;DHT22;7749;49.964;7.890;2024-01-30T02:15:07;1.50;99.90
15296;DHT22;7749;49.964;7.890;2024-01-30T02:17:35;1.60;99.90
15296;DHT22;7749;49.964;7.890;2024-01-30T02:20:03;1.50;99.90
15296;DHT22;7749;49.964;7.890;2024-01-30T02:22:33;1.50;99.90
15296;DHT22;7749;49.964;7.890;2024-01-30T02:25:01;1.50;99.90
15296;DHT22;7749;49.964;7.890;2024-01-30T02:27:29;1.50;99.90
15296;DHT22;7749;49.964;7.890;2024-01-30T02:29:56;1.50;99.90
15296;DHT22;7749;49.964;7.890;2024-01-30T02:32:24;1.50;99.90
15296;DHT22;7749;49.964;7.890;2024-01-30T02:34:51;1.50;99.90
15296;DHT22;7749;49.964;7.890;2024-01-30T02:37:19;1.50;99.90
15296;DHT22;7749;49.964;7.890;2024-01-30T02:39:46;1.40;99.90
15296;DHT22;7749;49.964;7.890;2024-01-30T02:42:13;1.40;99.90
15296;DHT22;7749;49.964;7.890;2024-01-30T02:44:41;1.40;99.90
15296;DHT22;7749;49.964;7.890;2024-01-30T02:47:08;1.40;99.90
15296;DHT22;7749;49.964;7.890;2024-01-30T02:49:35;1.40;99.90
15296;DHT22;7749;49.964;7.890;2024-01-30T02:52:03;1.40;99.90
15296;DHT22;7749;49.964;7.890;2024-01-30T02:54:31;1.40;99.90
15296;DHT22;7749;49.964;7.890;2024-01-30T02:56:58;1.40;99.90
15296;DHT22;7749;49.964;7.890;2024-01-30T02:59:25;1.40;99.90
15296;DHT22;7749;49.964;7.890;2024-01-30T03:01:53;1.40;99.90
15296;DHT22;7749;49.964;7.890;2024-01-30T03:04:20;1.30;99.90
15296;DHT22;7749;49.964;7.890;2024-01-30T03:06:48;1.30;99.90
15296;DHT22;7749;49.964;7.890;2024-01-30T03:09:16;1.30;99.90
15296;DHT22;7749;49.964;7.890;2024-01-30T03:11:45;1.30;99.90
15296;DHT22;7749;49.964;7.890;2024-01-30T03:14:12;1.30;99.90
15296;DHT22;7749;49.964;7.890;2024-01-30T03:16:39;1.20;99.90
15296;DHT22;7749;49.964;7.890;2024-01-30T03:19:07;1.20;99.90
15296;DHT22;7749;49.964;7.890;2024-01-30T03:21:37;1.20;99.90
15296;DHT22;7749;49.964;7.890;2024-01-30T03:24:05;1.20;99.90
15296;DHT22;7749;49.964;7.890;2024-01-30T03:26:32;1.20;99.90
15296;DHT22;7749;49.964;7.890;2024-01-30T03:29:00;1.30;99.90
15296;DHT22;7749;49.964;7.890;2024-01-30T03:31:27;1.20;99.90
15296;DHT22;7749;49.964;7.890;2024-01-30T03:33:55;1.20;99.90
15296;DHT22;7749;49.964;7.890;2024-01-30T03:36:22;1.20;99.90
15296;DHT22;7749;49.964;7.890;2024-01-30T03:38:49;1.20;99.90
15296;DHT22;7749;49.964;7.890;2024-01-30T03:41:17;1.20;99.90
15296;DHT22;7749;49.964;7.890;2024-01-30T03:43:44;1.10;99.90
15296;DHT22;7749;49.964;7.890;2024-01-30T03:46:12;1.10;99.90
15296;DHT22;7749;49.964;7.890;2024-01-30T03:48:40;1.10;99.90
15296;DHT22;7749;49.964;7.890;2024-01-30T03:51:07;1.10;99.90
15296;DHT22;7749;49.964;7.890;2024-01-30T03:53:35;1.10;99.90
15296;DHT22;7749;49.964;7.890;2024-01-30T03:56:02;1.00;99.90
15296;DHT22;7749;49.964;7.890;2024-01-30T03:58:30;1.00;99.90
15296;DHT22;7749;49.964;7.890;2024-01-30T04:00:57;1.00;99.90
15296;DHT22;7749;49.964;7.890;2024-01-30T04:03:25;1.00;99.90
15296;DHT22;7749;49.964;7.890;2024-01-30T04:05:53;1.00;99.90
15296;DHT22;7749;49.964;7.890;2024-01-30T04:08:20;1.00;99.90
15296;DHT22;7749;49.964;7.890;2024-01-30T04:10:49;1.00;99.90
15296;DHT22;7749;49.964;7.890;2024-01-30T04:13:16;1.00;99.90
15296;DHT22;7749;49.964;7.890;2024-01-30T04:15:44;1.00;99.90
15296;DHT22;7749;49.964;7.890;2024-01-30T04:18:12;1.00;99.90
15296;DHT22;7749;49.964;7.890;2024-01-30T04:20:39;1.00;99.90
15296;DHT22;7749;49.964;7.890;2024-01-30T04:23:06;1.00;99.90
15296;DHT22;7749;49.964;7.890;2024-01-30T04:25:34;1.10;99.90
15296;DHT22;7749;49.964;7.890;2024-01-30T04:28:01;1.10;99.90
15296;DHT22;7749;49.964;7.890;2024-01-30T04:30:29;1.10;99.90
15296;DHT22;7749;49.964;7.890;2024-01-30T04:32:57;1.00;99.90
15296;DHT22;7749;49.964;7.890;2024-01-30T04:35:24;1.00;99.90
15296;DHT22;7749;49.964;7.890;2024-01-30T04:37:52;1.10;99.90
15296;DHT22;7749;49.964;7.890;2024-01-30T04:40:21;1.10;99.90
15296;DHT22;7749;49.964;7.890;2024-01-30T04:42:48;1.10;99.90
15296;DHT22;7749;49.964;7.890;2024-01-30T04:45:16;1.00;99.90
15296;DHT22;7749;49.964;7.890;2024-01-30T04:47:43;1.00;99.90
15296;DHT22;7749;49.964;7.890;2024-01-30T04:50:11;0.90;99.90
15296;DHT22;7749;49.964;7.890;2024-01-30T04:52:38;0.90;99.90
15296;DHT22;7749;49.964;7.890;2024-01-30T04:55:06;0.90;99.90
15296;DHT22;7749;49.964;7.890;2024-01-30T04:57:34;0.90;99.90
15296;DHT22;7749;49.964;7.890;2024-01-30T05:00:01;0.90;99.90
15296;DHT22;7749;49.964;7.890;2024-01-30T05:02:28;0.90;99.90
15296;DHT22;7749;49.964;7.890;2024-01-30T05:04:56;0.90;99.90
15296;DHT22;7749;49.964;7.890;2024-01-30T05:07:25;0.90;99.90
15296;DHT22;7749;49.964;7.890;2024-01-30T05:09:53;0.80;99.90
15296;DHT22;7749;49.964;7.890;2024-01-30T05:12:25;0.90;99.90
15296;DHT22;7749;49.964;7.890;2024-01-30T05:14:53;0.80;99.90
15296;DHT22;7749;49.964;7.890;2024-01-30T05:17:20;0.80;99.90
15296;DHT22;7749;49.964;7.890;2024-01-30T05:19:47;0.80;99.90
15296;DHT22;7749;49.964;7.890;2024-01-30T05:22:15;0.80;99.90
15296;DHT22;7749;49.964;7.890;2024-01-30T05:24:45;0.80;99.90
15296;DHT22;7749;49.964;7.890;2024-01-30T05:27:12;0.70;99.90
15296;DHT22;7749;49.964;7.890;2024-01-30T05:29:41;0.80;99.90
15296;DHT22;7749;49.964;7.890;2024-01-30T05:32:08;0.80;99.90
15296;DHT22;7749;49.964;7.890;2024-01-30T05:34:36;0.80;99.90
15296;DHT22;7749;49.964;7.890;2024-01-30T05:37:03;0.80;99.90
15296;DHT22;7749;49.964;7.890;2024-01-30T05:39:31;0.80;99.90
15296;DHT22;7749;49.964;7.890;2024-01-30T05:42:00;0.80;99.90
15296;DHT22;7749;49.964;7.890;2024-01-30T05:44:27;0.90;99.90
15296;DHT22;7749;49.964;7.890;2024-01-30T05:46:54;0.90;99.90
15296;DHT22;7749;49.964;7.890;2024-01-30T05:49:22;0.90;99.90
15296;DHT22;7749;49.964;7.890;2024-01-30T05:51:50;0.90;99.90
15296;DHT22;7749;49.964;7.890;2024-01-30T05:54:18;0.90;99.90
15296;DHT22;7749;49.964;7.890;2024-01-30T05:56:45;0.90;99.90
15296;DHT22;7749;49.964;7.890;2024-01-30T05:59:13;0.90;99.90
15296;DHT22;7749;49.964;7.890;2024-01-30T06:01:47;0.80;99.90
15296;DHT22;7749;49.964;7.890;2024-01-30T06:04:15;0.80;99.90
15296;DHT22;7749;49.964;7.890;2024-01-30T06:06:42;0.80;99.90
15296;DHT22;7749;49.964;7.890;2024-01-30T06:09:10;0.80;99.90
15296;DHT22;7749;49.964;7.890;2024-01-30T06:11:37;0.90;99.90
15296;DHT22;7749;49.964;7.890;2024-01-30T06:14:05;0.80;99.90
15296;DHT22;7749;49.964;7.890;2024-01-30T06:16:32;0.90;99.90
15296;DHT22;7749;49.964;7.890;2024-01-30T06:19:01;0.80;99.90
15296;DHT22;7749;49.964;7.890;2024-01-30T06:21:28;0.80;99.90
15296;DHT22;7749;49.964;7.890;2024-01-30T06:23:56;0.80;99.90
15296;DHT22;7749;49.964;7.890;2024-01-30T06:26:23;0.80;99.90
15296;DHT22;7749;49.964;7.890;2024-01-30T06:28:51;0.80;99.90
15296;DHT22;7749;49.964;7.890;2024-01-30T06:31:18;0.80;99.90
15296;DHT22;7749;49.964;7.890;2024-01-30T06:33:49;0.80;99.90
15296;DHT22;7749;49.964;7.890;2024-01-30T06:36:16;0.80;99.90
15296;DHT22;7749;49.964;7.890;2024-01-30T06:38:43;0.80;99.90
15296;DHT22;7749;49.964;7.890;2024-01-30T06:41:11;0.80;99.90
15296;DHT22;7749;49.964;7.890;2024-01-30T06:43:38;0.80;99.90
15296;DHT22;7749;49.964;7.890;2024-01-30T06:46:06;0.80;99.90
15296;DHT22;7749;49.964;7.890;2024-01-30T06:48:33;0.80;99.90
15296;DHT22;7749;49.964;7.890;2024-01-30T06:51:01;0.80;99.90
15296;DHT22;7749;49.964;7.890;2024-01-30T06:53:28;0.80;99.90
15296;DHT22;7749;49.964;7.890;2024-01-30T06:55:56;0.80;99.90
15296;DHT22;7749;49.964;7.890;2024-01-30T06:58:23;0.80;99.90
15296;DHT22;7749;49.964;7.890;2024-01-30T07:00:51;0.80;99.90
15296;DHT22;7749;49.964;7.890;2024-01-30T07:03:19;0.80;99.90
15296;DHT22;7749;49.964;7.890;2024-01-30T07:05:46;0.80;99.90
15296;DHT22;7749;49.964;7.890;2024-01-30T07:08:16;0.90;99.90
15296;DHT22;7749;49.964;7.890;2024-01-30T07:10:46;0.90;99.90
15296;DHT22;7749;49.964;7.890;2024-01-30T07:13:14;0.90;99.90
15296;DHT22;7749;49.964;7.890;2024-01-30T07:15:43;0.90;99.90
15296;DHT22;7749;49.964;7.890;2024-01-30T07:18:11;0.90;99.90
15296;DHT22;7749;49.964;7.890;2024-01-30T07:20:40;0.90;99.90
15296;DHT22;7749;49.964;7.890;2024-01-30T07:23:13;0.90;99.90
15296;DHT22;7749;49.964;7.890;2024-01-30T07:25:46;1.00;99.90
15296;DHT22;7749;49.964;7.890;2024-01-30T07:28:17;1.00;99.90
15296;DHT22;7749;49.964;7.890;2024-01-30T07:30:45;1.00;99.90
15296;DHT22;7749;49.964;7.890;2024-01-30T07:33:13;1.00;99.90
15296;DHT22;7749;49.964;7.890;2024-01-30T07:35:41;1.00;99.90
15296;DHT22;7749;49.964;7.890;2024-01-30T07:38:08;1.10;99.90
15296;DHT22;7749;49.964;7.890;2024-01-30T07:40:36;1.10;99.90
15296;DHT22;7749;49.964;7.890;2024-01-30T07:43:03;1.20;99.90
15296;DHT22;7749;49.964;7.890;2024-01-30T07:45:31;1.20;99.90
15296;DHT22;7749;49.964;7.890;2024-01-30T07:48:01;1.30;99.90
15296;DHT22;7749;49.964;7.890;2024-01-30T07:50:29;1.30;99.90
15296;DHT22;7749;49.964;7.890;2024-01-30T07:52:56;1.30;99.90
15296;DHT22;7749;49.964;7.890;2024-01-30T07:55:24;1.40;99.90
15296;DHT22;7749;49.964;7.890;2024-01-30T07:57:55;1.40;99.90
15296;DHT22;7749;49.964;7.890;2024-01-30T08:00:23;1.40;99.90
15296;DHT22;7749;49.964;7.890;2024-01-30T08:02:50;1.40;99.90
15296;DHT22;7749;49.964;7.890;2024-01-30T08:05:22;1.50;99.90
15296;DHT22;7749;49.964;7.890;2024-01-30T08:07:50;1.60;99.90
15296;DHT22;7749;49.964;7.890;2024-01-30T08:10:18;1.70;99.90
15296;DHT22;7749;49.964;7.890;2024-01-30T08:12:47;1.70;99.90
15296;DHT22;7749;49.964;7.890;2024-01-30T08:15:15;1.80;99.90
15296;DHT22;7749;49.964;7.890;2024-01-30T08:17:42;1.80;99.90
15296;DHT22;7749;49.964;7.890;2024-01-30T08:20:11;1.70;99.90
15296;DHT22;7749;49.964;7.890;2024-01-30T08:22:40;1.90;99.90
15296;DHT22;7749;49.964;7.890;2024-01-30T08:25:10;1.80;99.90
15296;DHT22;7749;49.964;7.890;2024-01-30T08:27:37;1.80;99.90
15296;DHT22;7749;49.964;7.890;2024-01-30T08:30:07;1.80;99.90
15296;DHT22;7749;49.964;7.890;2024-01-30T08:32:34;1.80;99.90
15296;DHT22;7749;49.964;7.890;2024-01-30T08:35:04;1.90;99.90
15296;DHT22;7749;49.964;7.890;2024-01-30T08:37:32;1.90;99.90
15296;DHT22;7749;49.964;7.890;2024-01-30T08:39:59;1.90;99.90
15296;DHT22;7749;49.964;7.890;2024-01-30T08:42:27;2.00;99.90
15296;DHT22;7749;49.964;7.890;2024-01-30T08:44:54;2.00;99.90
15296;DHT22;7749;49.964;7.890;2024-01-30T08:47:23;2.10;99.90
15296;DHT22;7749;49.964;7.890;2024-01-30T08:49:50;2.10;99.90
15296;DHT22;7749;49.964;7.890;2024-01-30T08:52:18;2.20;99.90
15296;DHT22;7749;49.964;7.890;2024-01-30T08:54:45;2.20;99.90
15296;DHT22;7749;49.964;7.890;2024-01-30T08:57:13;2.30;99.90
15296;DHT22;7749;49.964;7.890;2024-01-30T08:59:40;2.40;99.90
15296;DHT22;7749;49.964;7.890;2024-01-30T09:02:07;2.40;99.90
15296;DHT22;7749;49.964;7.890;2024-01-30T09:04:39;2.50;99.90
15296;DHT22;7749;49.964;7.890;2024-01-30T09:07:09;2.50;99.90
15296;DHT22;7749;49.964;7.890;2024-01-30T09:09:38;2.60;99.90
15296;DHT22;7749;49.964;7.890;2024-01-30T09:12:09;2.70;99.90
15296;DHT22;7749;49.964;7.890;2024-01-30T09:14:39;2.70;99.90
15296;DHT22;7749;49.964;7.890;2024-01-30T09:17:08;2.70;99.90
15296;DHT22;7749;49.964;7.890;2024-01-30T09:19:36;2.70;99.90
15296;DHT22;7749;49.964;7.890;2024-01-30T09:22:04;2.70;99.90
15296;DHT22;7749;49.964;7.890;2024-01-30T09:24:31;2.70;99.90
15296;DHT22;7749;49.964;7.890;2024-01-30T09:26:59;2.80;99.90
15296;DHT22;7749;49.964;7.890;2024-01-30T09:29:26;2.90;99.90
15296;DHT22;7749;49.964;7.890;2024-01-30T09:31:54;2.90;99.90
15296;DHT22;7749;49.964;7.890;2024-01-30T09:34:21;3.00;99.90
15296;DHT22;7749;49.964;7.890;2024-01-30T09:36:49;3.00;99.90
15296;DHT22;7749;49.964;7.890;2024-01-30T09:39:16;3.00;99.90
15296;DHT22;7749;49.964;7.890;2024-01-30T09:41:49;3.10;99.90
15296;DHT22;7749;49.964;7.890;2024-01-30T09:44:17;3.00;99.90
15296;DHT22;7749;49.964;7.890;2024-01-30T09:46:47;3.00;99.90
15296;DHT22;7749;49.964;7.890;2024-01-30T09:49:15;3.10;99.90
15296;DHT22;7749;49.964;7.890;2024-01-30T09:51:48;3.10;99.90
15296;DHT22;7749;49.964;7.890;2024-01-30T09:54:17;3.10;99.90
15296;DHT22;7749;49.964;7.890;2024-01-30T09:56:44;3.20;99.90
15296;DHT22;7749;49.964;7.890;2024-01-30T09:59:12;3.30;99.90
15296;DHT22;7749;49.964;7.890;2024-01-30T10:01:40;3.40;99.90
15296;DHT22;7749;49.964;7.890;2024-01-30T10:04:08;3.50;99.90
15296;DHT22;7749;49.964;7.890;2024-01-30T10:06:36;3.60;99.90
15296;DHT22;7749;49.964;7.890;2024-01-30T10:09:04;3.70;99.90
15296;DHT22;7749;49.964;7.890;2024-01-30T10:11:31;3.70;99.90
15296;DHT22;7749;49.964;7.890;2024-01-30T10:14:00;3.80;99.90
15296;DHT22;7749;49.964;7.890;2024-01-30T10:16:27;3.80;99.90
15296;DHT22;7749;49.964;7.890;2024-01-30T10:18:55;3.90;99.90
15296;DHT22;7749;49.964;7.890;2024-01-30T10:21:23;4.00;99.90
15296;DHT22;7749;49.964;7.890;2024-01-30T10:23:50;4.10;99.90
15296;DHT22;7749;49.964;7.890;2024-01-30T10:26:18;4.20;99.90
15296;DHT22;7749;49.964;7.890;2024-01-30T10:28:45;4.30;99.90
15296;DHT22;7749;49.964;7.890;2024-01-30T10:31:16;4.30;99.90
15296;DHT22;7749;49.964;7.890;2024-01-30T10:33:44;4.40;99.90
15296;DHT22;7749;49.964;7.890;2024-01-30T10:36:17;4.40;99.90
15296;DHT22;7749;49.964;7.890;2024-01-30T10:38:49;4.50;99.90
15296;DHT22;7749;49.964;7.890;2024-01-30T10:41:26;4.50;99.90
15296;DHT22;7749;49.964;7.890;2024-01-30T10:44:08;4.60;99.90
15296;DHT22;7749;49.964;7.890;2024-01-30T10:46:38;4.60;99.90
15296;DHT22;7749;49.964;7.890;2024-01-30T10:49:06;4.70;99.90
15296;DHT22;7749;49.964;7.890;2024-01-30T10:51:34;4.70;99.90
15296;DHT22;7749;49.964;7.890;2024-01-30T10:54:04;4.90;99.90
15296;DHT22;7749;49.964;7.890;2024-01-30T10:56:32;5.00;99.90
15296;DHT22;7749;49.964;7.890;2024-01-30T10:59:02;5.10;99.90
15296;DHT22;7749;49.964;7.890;2024-01-30T11:01:31;5.10;99.90
15296;DHT22;7749;49.964;7.890;2024-01-30T11:03:58;5.20;99.90
15296;DHT22;7749;49.964;7.890;2024-01-30T11:06:26;5.10;99.90
15296;DHT22;7749;49.964;7.890;2024-01-30T11:09:03;5.00;99.90
15296;DHT22;7749;49.964;7.890;2024-01-30T11:14:30;5.20;99.90
15296;DHT22;7749;49.964;7.890;2024-01-30T11:16:58;5.20;99.90
15296;DHT22;7749;49.964;7.890;2024-01-30T11:19:27;5.40;99.90
15296;DHT22;7749;49.964;7.890;2024-01-30T11:21:55;5.60;99.90
15296;DHT22;7749;49.964;7.890;2024-01-30T11:24:25;5.90;99.90
15296;DHT22;7749;49.964;7.890;2024-01-30T11:26:56;6.20;99.90
15296;DHT22;7749;49.964;7.890;2024-01-30T11:29:28;6.40;99.90
15296;DHT22;7749;49.964;7.890;2024-01-30T11:31:57;6.50;99.90
15296;DHT22;7749;49.964;7.890;2024-01-30T11:34:26;6.50;99.90
15296;DHT22;7749;49.964;7.890;2024-01-30T11:37:03;6.70;99.90
15296;DHT22;7749;49.964;7.890;2024-01-30T11:39:36;7.00;99.90
15296;DHT22;7749;49.964;7.890;2024-01-30T11:42:06;7.30;99.90
15296;DHT22;7749;49.964;7.890;2024-01-30T11:44:36;7.70;99.90
15296;DHT22;7749;49.964;7.890;2024-01-30T11:47:03;8.40;99.90
15296;DHT22;7749;49.964;7.890;2024-01-30T11:49:31;8.90;99.90
15296;DHT22;7749;49.964;7.890;2024-01-30T11:51:58;9.50;99.90
15296;DHT22;7749;49.964;7.890;2024-01-30T11:54:26;10.00;99.90
15296;DHT22;7749;49.964;7.890;2024-01-30T11:56:53;10.50;99.90
15296;DHT22;7749;49.964;7.890;2024-01-30T11:59:21;10.20;99.90
15296;DHT22;7749;49.964;7.890;2024-01-30T12:01:48;9.70;99.90
15296;DHT22;7749;49.964;7.890;2024-01-30T12:04:16;9.10;1.00
15296;DHT22;7749;49.964;7.890;2024-01-30T12:06:44;8.70;1.00
15296;DHT22;7749;49.964;7.890;2024-01-30T12:09:12;8.20;1.00
15296;DHT22;7749;49.964;7.890;2024-01-30T12:11:47;7.90;99.90
15296;DHT22;7749;49.964;7.890;2024-01-30T12:14:16;7.60;1.00
15296;DHT22;7749;49.964;7.890;2024-01-30T12:16:43;7.30;1.00
15296;DHT22;7749;49.964;7.890;2024-01-30T12:19:22;7.20;1.00
15296;DHT22;7749;49.964;7.890;2024-01-30T12:21:57;7.00;1.00
15296;DHT22;7749;49.964;7.890;2024-01-30T12:24:29;7.00;1.00
15296;DHT22;7749;49.964;7.890;2024-01-30T12:26:59;6.80;1.00
15296;DHT22;7749;49.964;7.890;2024-01-30T12:29:27;6.80;1.00
15296;DHT22;7749;49.964;7.890;2024-01-30T12:32:03;6.80;1.00
15296;DHT22;7749;49.964;7.890;2024-01-30T12:34:31;6.70;1.00
15296;DHT22;7749;49.964;7.890;2024-01-30T12:37:05;6.80;1.00
15296;DHT22;7749;49.964;7.890;2024-01-30T12:39:35;6.70;1.00
15296;DHT22;7749;49.964;7.890;2024-01-30T12:42:02;6.80;1.00
15296;DHT22;7749;49.964;7.890;2024-01-30T12:44:30;6.70;1.00
15296;DHT22;7749;49.964;7.890;2024-01-30T12:46:57;6.80;1.00
15296;DHT22;7749;49.964;7.890;2024-01-30T12:49:25;6.80;1.00
15296;DHT22;7749;49.964;7.890;2024-01-30T12:51:52;6.70;1.00
15296;DHT22;7749;49.964;7.890;2024-01-30T12:54:20;6.80;1.00
15296;DHT22;7749;49.964;7.890;2024-01-30T12:56:47;7.00;1.00
15296;DHT22;7749;49.964;7.890;2024-01-30T12:59:15;7.10;1.00
15296;DHT22;7749;49.964;7.890;2024-01-30T13:01:43;7.40;1.00
15296;DHT22;7749;49.964;7.890;2024-01-30T13:04:11;7.90;1.00
15296;DHT22;7749;49.964;7.890;2024-01-30T13:06:38;8.40;1.00
15296;DHT22;7749;49.964;7.890;2024-01-30T13:09:06;8.70;99.90
15296;DHT22;7749;49.964;7.890;2024-01-30T13:11:33;9.00;34.80
15296;DHT22;7749;49.964;7.890;2024-01-30T13:14:01;8.90;1.00
15296;DHT22;7749;49.964;7.890;2024-01-30T13:16:29;8.80;1.00
15296;DHT22;7749;49.964;7.890;2024-01-30T13:18:56;8.70;1.00
15296;DHT22;7749;49.964;7.890;2024-01-30T13:21:24;8.60;75.50
15296;DHT22;7749;49.964;7.890;2024-01-30T13:23:51;8.50;30.50
15296;DHT22;7749;49.964;7.890;2024-01-30T13:26:21;8.40;99.90
15296;DHT22;7749;49.964;7.890;2024-01-30T13:28:49;8.40;99.90
15296;DHT22;7749;49.964;7.890;2024-01-30T13:31:16;8.30;99.90
15296;DHT22;7749;49.964;7.890;2024-01-30T13:33:44;8.10;99.90
15296;DHT22;7749;49.964;7.890;2024-01-30T13:36:12;7.90;1.00
15296;DHT22;7749;49.964;7.890;2024-01-30T13:38:39;7.60;1.00
15296;DHT22;7749;49.964;7.890;2024-01-30T13:41:07;7.50;1.00
15296;DHT22;7749;49.964;7.890;2024-01-30T13:43:34;7.50;1.00
15296;DHT22;7749;49.964;7.890;2024-01-30T13:46:02;7.50;1.00
15296;DHT22;7749;49.964;7.890;2024-01-30T13:48:31;7.50;1.00
15296;DHT22;7749;49.964;7.890;2024-01-30T13:50:59;7.50;1.00
15296;DHT22;7749;49.964;7.890;2024-01-30T13:53:26;7.50;1.00
15296;DHT22;7749;49.964;7.890;2024-01-30T13:55:54;7.50;1.00
15296;DHT22;7749;49.964;7.890;2024-01-30T13:58:22;7.50;1.00
15296;DHT22;7749;49.964;7.890;2024-01-30T14:00:49;7.50;1.00
15296;DHT22;7749;49.964;7.890;2024-01-30T14:03:18;7.50;1.00
15296;DHT22;7749;49.964;7.890;2024-01-30T14:05:45;7.40;1.00
15296;DHT22;7749;49.964;7.890;2024-01-30T14:08:12;7.40;1.00
15296;DHT22;7749;49.964;7.890;2024-01-30T14:10:40;7.40;1.00
15296;DHT22;7749;49.964;7.890;2024-01-30T14:13:07;7.40;1.00
15296;DHT22;7749;49.964;7.890;2024-01-30T14:15:34;7.30;1.00
15296;DHT22;7749;49.964;7.890;2024-01-30T14:18:02;7.30;1.00
15296;DHT22;7749;49.964;7.890;2024-01-30T14:20:30;7.20;1.40
15296;DHT22;7749;49.964;7.890;2024-01-30T14:22:58;7.20;12.90
15296;DHT22;7749;49.964;7.890;2024-01-30T14:25:26;7.20;27.20
15296;DHT22;7749;49.964;7.890;2024-01-30T14:27:53;7.10;41.90
15296;DHT22;7749;49.964;7.890;2024-01-30T14:30:21;7.10;51.10
15296;DHT22;7749;49.964;7.890;2024-01-30T14:32:49;7.10;61.30
15296;DHT22;7749;49.964;7.890;2024-01-30T14:35:16;7.10;78.00
15296;DHT22;7749;49.964;7.890;2024-01-30T14:37:44;7.10;88.50
15296;DHT22;7749;49.964;7.890;2024-01-30T14:40:11;6.90;95.00
15296;DHT22;7749;49.964;7.890;2024-01-30T14:42:39;7.00;99.90
15296;DHT22;7749;49.964;7.890;2024-01-30T14:45:06;7.00;99.90
15296;DHT22;7749;49.964;7.890;2024-01-30T14:47:35;6.90;99.90
15296;DHT22;7749;49.964;7.890;2024-01-30T14:50:04;6.90;99.90
15296;DHT22;7749;49.964;7.890;2024-01-30T14:52:36;6.90;99.90
15296;DHT22;7749;49.964;7.890;2024-01-30T14:55:04;7.00;99.90
15296;DHT22;7749;49.964;7.890;2024-01-30T14:57:32;7.00;99.90
15296;DHT22;7749;49.964;7.890;2024-01-30T15:00:01;7.00;99.90
15296;DHT22;7749;49.964;7.890;2024-01-30T15:02:29;7.00;99.90
15296;DHT22;7749;49.964;7.890;2024-01-30T15:04:58;7.10;99.90
15296;DHT22;7749;49.964;7.890;2024-01-30T15:07:25;7.10;99.90
15296;DHT22;7749;49.964;7.890;2024-01-30T15:10:06;7.10;99.90
15296;DHT22;7749;49.964;7.890;2024-01-30T15:12:35;7.10;99.90
15296;DHT22;7749;49.964;7.890;2024-01-30T15:15:03;7.10;99.90
15296;DHT22;7749;49.964;7.890;2024-01-30T15:17:31;7.10;99.90
15296;DHT22;7749;49.964;7.890;2024-01-30T15:19:58;7.10;99.90
15296;DHT22;7749;49.964;7.890;2024-01-30T15:22:27;7.00;99.90
15296;DHT22;7749;49.964;7.890;2024-01-30T15:24:55;7.00;99.90
15296;DHT22;7749;49.964;7.890;2024-01-30T15:27:23;7.00;99.90
15296;DHT22;7749;49.964;7.890;2024-01-30T15:29:53;7.00;99.90
15296;DHT22;7749;49.964;7.890;2024-01-30T15:32:20;7.00;99.90
15296;DHT22;7749;49.964;7.890;2024-01-30T15:34:48;7.00;99.90
15296;DHT22;7749;49.964;7.890;2024-01-30T15:37:15;7.00;99.90
15296;DHT22;7749;49.964;7.890;2024-01-30T15:39:42;7.00;99.90
15296;DHT22;7749;49.964;7.890;2024-01-30T15:42:10;7.00;99.90
15296;DHT22;7749;49.964;7.890;2024-01-30T15:44:37;6.90;99.90
15296;DHT22;7749;49.964;7.890;2024-01-30T15:47:04;6.90;99.90
15296;DHT22;7749;49.964;7.890;2024-01-30T15:49:32;6.90;99.90
15296;DHT22;7749;49.964;7.890;2024-01-30T15:52:00;6.90;99.90
15296;DHT22;7749;49.964;7.890;2024-01-30T15:54:27;6.90;99.90
15296;DHT22;7749;49.964;7.890;2024-01-30T15:56:55;6.90;99.90
15296;DHT22;7749;49.964;7.890;2024-01-30T15:59:22;6.90;99.90
15296;DHT22;7749;49.964;7.890;2024-01-30T16:01:49;6.90;99.90
15296;DHT22;7749;49.964;7.890;2024-01-30T16:04:17;6.90;99.90
15296;DHT22;7749;49.964;7.890;2024-01-30T16:06:45;6.90;99.90
15296;DHT22;7749;49.964;7.890;2024-01-30T16:09:12;6.80;99.90
15296;DHT22;7749;49.964;7.890;2024-01-30T16:11:41;6.80;99.90
15296;DHT22;7749;49.964;7.890;2024-01-30T16:14:09;6.80;99.90